sensor_id;sensor_type;location;lat;lon;timestamp;P1;durP1;ratioP1;P2;durP2;ratioP2
1701;SDS011;848;48.354;10.064;2023-09-19T00:04:21;3.55;;;2.60;;
1701;SDS011;848;48.354;10.064;2023-09-19T00:06:54;5.63;;;2.75;;
1701;SDS011;848;48.354;10.064;2023-09-19T00:09:21;5.47;;;2.70;;
1701;SDS011;848;48.354;10.064;2023-09-19T00:11:51;3.08;;;2.15;;
1701;SDS011;848;48.354;10.064;2023-09-19T00:14:18;5.10;;;2.40;;
1701;SDS011;848;48.354;10.064;2023-09-19T00:16:44;3.88;;;3.00;;
1701;SDS011;848;48.354;10.064;2023-09-19T00:19:12;3.40;;;2.30;;
1701;SDS011;848;48.354;10.064;2023-09-19T00:21:42;3.70;;;2.60;;
1701;SDS011;848;48.354;10.064;2023-09-19T00:24:10;3.90;;;2.53;;
1701;SDS011;848;48.354;10.064;2023-09-19T00:26:38;4.13;;;2.95;;
1701;SDS011;848;48.354;10.064;2023-09-19T00:29:05;3.20;;;2.22;;
1701;SDS011;848;48.354;10.064;2023-09-19T00:31:33;4.20;;;2.25;;
1701;SDS011;848;48.354;10.064;2023-09-19T00:34:02;2.88;;;2.10;;
1701;SDS011;848;48.354;10.064;2023-09-19T00:36:31;2.72;;;1.98;;
1701;SDS011;848;48.354;10.064;2023-09-19T00:39:00;4.50;;;4.10;;
1701;SDS011;848;48.354;10.064;2023-09-19T00:41:30;5.60;;;2.88;;
1701;SDS011;848;48.354;10.064;2023-09-19T00:43:57;3.95;;;3.08;;
1701;SDS011;848;48.354;10.064;2023-09-19T00:46:25;5.53;;;2.92;;
1701;SDS011;848;48.354;10.064;2023-09-19T00:48:52;4.25;;;2.60;;
1701;SDS011;848;48.354;10.064;2023-09-19T00:51:19;3.70;;;2.55;;
1701;SDS011;848;48.354;10.064;2023-09-19T00:53:47;6.45;;;3.20;;
1701;SDS011;848;48.354;10.064;2023-09-19T00:56:16;8.50;;;3.20;;
1701;SDS011;848;48.354;10.064;2023-09-19T00:58:43;3.70;;;2.42;;
1701;SDS011;848;48.354;10.064;2023-09-19T01:01:11;5.47;;;2.80;;
1701;SDS011;848;48.354;10.064;2023-09-19T01:03:39;5.18;;;2.80;;
1701;SDS011;848;48.354;10.064;2023-09-19T01:06:07;3.50;;;2.88;;
1701;SDS011;848;48.354;10.064;2023-09-19T01:08:34;6.40;;;2.90;;
1701;SDS011;848;48.354;10.064;2023-09-19T01:11:03;3.60;;;2.45;;
1701;SDS011;848;48.354;10.064;2023-09-19T01:13:43;3.50;;;2.40;;
1701;SDS011;848;48.354;10.064;2023-09-19T01:16:27;6.35;;;3.15;;
1701;SDS011;848;48.354;10.064;2023-09-19T01:19:01;3.33;;;2.65;;
1701;SDS011;848;48.354;10.064;2023-09-19T01:21:48;4.50;;;2.88;;
1701;SDS011;848;48.354;10.064;2023-09-19T01:24:33;4.68;;;3.13;;
1701;SDS011;848;48.354;10.064;2023-09-19T01:27:51;3.90;;;2.70;;
1701;SDS011;848;48.354;10.064;2023-09-19T01:30:35;4.70;;;2.97;;
1701;SDS011;848;48.354;10.064;2023-09-19T01:33:05;3.72;;;2.33;;
1701;SDS011;848;48.354;10.064;2023-09-19T01:35:33;3.35;;;2.60;;
1701;SDS011;848;48.354;10.064;2023-09-19T01:38:04;3.78;;;3.10;;
1701;SDS011;848;48.354;10.064;2023-09-19T01:40:32;3.95;;;2.60;;
1701;SDS011;848;48.354;10.064;2023-09-19T01:43:07;4.55;;;2.35;;
1701;SDS011;848;48.354;10.064;2023-09-19T01:45:43;7.32;;;3.47;;
1701;SDS011;848;48.354;10.064;2023-09-19T01:48:19;3.13;;;2.60;;
1701;SDS011;848;48.354;10.064;2023-09-19T01:50:55;5.15;;;2.95;;
1701;SDS011;848;48.354;10.064;2023-09-19T01:53:26;3.63;;;2.00;;
1701;SDS011;848;48.354;10.064;2023-09-19T01:55:57;6.50;;;2.75;;
1701;SDS011;848;48.354;10.064;2023-09-19T01:58:26;3.13;;;2.30;;
1701;SDS011;848;48.354;10.064;2023-09-19T02:00:59;2.58;;;1.95;;
1701;SDS011;848;48.354;10.064;2023-09-19T02:03:27;3.85;;;2.72;;
1701;SDS011;848;48.354;10.064;2023-09-19T02:05:55;2.95;;;2.20;;
1701;SDS011;848;48.354;10.064;2023-09-19T02:08:22;4.38;;;2.40;;
1701;SDS011;848;48.354;10.064;2023-09-19T02:10:49;4.47;;;2.03;;
1701;SDS011;848;48.354;10.064;2023-09-19T02:13:15;3.77;;;1.87;;
1701;SDS011;848;48.354;10.064;2023-09-19T02:15:44;3.78;;;2.28;;
1701;SDS011;848;48.354;10.064;2023-09-19T02:18:13;2.13;;;1.70;;
1701;SDS011;848;48.354;10.064;2023-09-19T02:20:39;4.18;;;2.15;;
1701;SDS011;848;48.354;10.064;2023-09-19T02:23:07;5.28;;;2.60;;
1701;SDS011;848;48.354;10.064;2023-09-19T02:25:34;3.50;;;2.22;;
1701;SDS011;848;48.354;10.064;2023-09-19T02:28:03;3.15;;;2.00;;
1701;SDS011;848;48.354;10.064;2023-09-19T02:30:30;3.67;;;2.75;;
1701;SDS011;848;48.354;10.064;2023-09-19T02:32:57;3.80;;;1.80;;
1701;SDS011;848;48.354;10.064;2023-09-19T02:35:28;3.35;;;2.15;;
1701;SDS011;848;48.354;10.064;2023-09-19T02:37:58;4.40;;;2.47;;
1701;SDS011;848;48.354;10.064;2023-09-19T02:40:25;2.45;;;2.25;;
1701;SDS011;848;48.354;10.064;2023-09-19T02:42:53;3.63;;;1.88;;
1701;SDS011;848;48.354;10.064;2023-09-19T02:45:21;3.35;;;2.28;;
1701;SDS011;848;48.354;10.064;2023-09-19T02:47:48;6.18;;;2.17;;
1701;SDS011;848;48.354;10.064;2023-09-19T02:50:16;2.30;;;2.10;;
1701;SDS011;848;48.354;10.064;2023-09-19T02:52:45;6.18;;;2.88;;
1701;SDS011;848;48.354;10.064;2023-09-19T02:55:14;2.55;;;2.35;;
1701;SDS011;848;48.354;10.064;2023-09-19T02:57:45;3.05;;;2.58;;
1701;SDS011;848;48.354;10.064;2023-09-19T03:00:13;3.33;;;2.80;;
1701;SDS011;848;48.354;10.064;2023-09-19T03:02:40;6.45;;;1.90;;
1701;SDS011;848;48.354;10.064;2023-09-19T03:05:08;3.72;;;2.30;;
1701;SDS011;848;48.354;10.064;2023-09-19T03:07:37;3.83;;;2.08;;
1701;SDS011;848;48.354;10.064;2023-09-19T03:10:06;6.10;;;3.15;;
1701;SDS011;848;48.354;10.064;2023-09-19T03:12:34;4.38;;;2.47;;
1701;SDS011;848;48.354;10.064;2023-09-19T03:15:01;5.20;;;2.55;;
1701;SDS011;848;48.354;10.064;2023-09-19T03:17:29;2.90;;;2.03;;
1701;SDS011;848;48.354;10.064;2023-09-19T03:19:57;3.35;;;2.00;;
1701;SDS011;848;48.354;10.064;2023-09-19T03:22:24;4.03;;;2.42;;
1701;SDS011;848;48.354;10.064;2023-09-19T03:24:52;4.13;;;2.35;;
1701;SDS011;848;48.354;10.064;2023-09-19T03:27:21;4.28;;;2.42;;
1701;SDS011;848;48.354;10.064;2023-09-19T03:29:48;3.10;;;1.73;;
1701;SDS011;848;48.354;10.064;2023-09-19T03:32:15;3.63;;;2.05;;
1701;SDS011;848;48.354;10.064;2023-09-19T03:34:42;6.50;;;2.55;;
1701;SDS011;848;48.354;10.064;2023-09-19T03:37:09;3.00;;;2.00;;
1701;SDS011;848;48.354;10.064;2023-09-19T03:39:37;3.03;;;2.20;;
1701;SDS011;848;48.354;10.064;2023-09-19T03:42:04;2.97;;;2.35;;
1701;SDS011;848;48.354;10.064;2023-09-19T03:44:33;3.50;;;2.30;;
1701;SDS011;848;48.354;10.064;2023-09-19T03:47:00;2.95;;;1.95;;
1701;SDS011;848;48.354;10.064;2023-09-19T03:49:27;3.10;;;2.25;;
1701;SDS011;848;48.354;10.064;2023-09-19T03:51:55;5.70;;;2.55;;
1701;SDS011;848;48.354;10.064;2023-09-19T03:54:22;4.55;;;3.05;;
1701;SDS011;848;48.354;10.064;2023-09-19T03:56:48;3.45;;;2.50;;
1701;SDS011;848;48.354;10.064;2023-09-19T03:59:15;9.60;;;3.35;;
1701;SDS011;848;48.354;10.064;2023-09-19T04:01:45;5.95;;;3.50;;
1701;SDS011;848;48.354;10.064;2023-09-19T04:04:11;6.80;;;3.03;;
1701;SDS011;848;48.354;10.064;2023-09-19T04:06:39;6.00;;;3.58;;
1701;SDS011;848;48.354;10.064;2023-09-19T04:09:06;9.45;;;2.92;;
1701;SDS011;848;48.354;10.064;2023-09-19T04:11:33;5.32;;;3.13;;
1701;SDS011;848;48.354;10.064;2023-09-19T04:14:02;5.20;;;2.67;;
1701;SDS011;848;48.354;10.064;2023-09-19T04:16:29;3.95;;;2.45;;
1701;SDS011;848;48.354;10.064;2023-09-19T04:18:58;10.98;;;2.70;;
1701;SDS011;848;48.354;10.064;2023-09-19T04:21:24;3.20;;;2.20;;
1701;SDS011;848;48.354;10.064;2023-09-19T04:23:52;5.47;;;2.30;;
1701;SDS011;848;48.354;10.064;2023-09-19T04:26:19;2.10;;;1.90;;
1701;SDS011;848;48.354;10.064;2023-09-19T04:28:47;3.10;;;1.90;;
1701;SDS011;848;48.354;10.064;2023-09-19T04:31:13;4.15;;;2.50;;
1701;SDS011;848;48.354;10.064;2023-09-19T04:33:41;4.40;;;2.30;;
1701;SDS011;848;48.354;10.064;2023-09-19T04:36:10;3.03;;;1.90;;
1701;SDS011;848;48.354;10.064;2023-09-19T04:38:38;4.80;;;3.08;;
1701;SDS011;848;48.354;10.064;2023-09-19T04:41:04;4.00;;;2.00;;
1701;SDS011;848;48.354;10.064;2023-09-19T04:43:31;5.80;;;2.05;;
1701;SDS011;848;48.354;10.064;2023-09-19T04:45:58;3.50;;;2.15;;
1701;SDS011;848;48.354;10.064;2023-09-19T04:48:25;3.08;;;1.70;;
1701;SDS011;848;48.354;10.064;2023-09-19T04:50:54;3.25;;;1.45;;
1701;SDS011;848;48.354;10.064;2023-09-19T04:53:22;2.35;;;2.13;;
1701;SDS011;848;48.354;10.064;2023-09-19T04:55:50;3.10;;;2.25;;
1701;SDS011;848;48.354;10.064;2023-09-19T04:58:17;8.27;;;2.03;;
1701;SDS011;848;48.354;10.064;2023-09-19T05:00:45;4.70;;;2.10;;
1701;SDS011;848;48.354;10.064;2023-09-19T05:03:12;3.65;;;1.75;;
1701;SDS011;848;48.354;10.064;2023-09-19T05:05:39;2.35;;;1.85;;
1701;SDS011;848;48.354;10.064;2023-09-19T05:08:07;2.97;;;2.20;;
1701;SDS011;848;48.354;10.064;2023-09-19T05:10:36;3.25;;;2.17;;
1701;SDS011;848;48.354;10.064;2023-09-19T05:13:04;3.05;;;2.35;;
1701;SDS011;848;48.354;10.064;2023-09-19T05:15:32;3.78;;;2.08;;
1701;SDS011;848;48.354;10.064;2023-09-19T05:18:00;4.55;;;2.40;;
1701;SDS011;848;48.354;10.064;2023-09-19T05:20:28;12.80;;;2.40;;
1701;SDS011;848;48.354;10.064;2023-09-19T05:22:58;2.20;;;1.63;;
1701;SDS011;848;48.354;10.064;2023-09-19T05:25:26;3.10;;;1.70;;
1701;SDS011;848;48.354;10.064;2023-09-19T05:27:55;3.67;;;1.50;;
1701;SDS011;848;48.354;10.064;2023-09-19T05:30:23;4.97;;;1.83;;
1701;SDS011;848;48.354;10.064;2023-09-19T05:32:52;1.90;;;1.35;;
1701;SDS011;848;48.354;10.064;2023-09-19T05:35:19;1.85;;;1.50;;
1701;SDS011;848;48.354;10.064;2023-09-19T05:37:47;1.80;;;1.15;;
1701;SDS011;848;48.354;10.064;2023-09-19T05:40:15;2.75;;;1.67;;
1701;SDS011;848;48.354;10.064;2023-09-19T05:42:42;2.80;;;1.70;;
1701;SDS011;848;48.354;10.064;2023-09-19T05:45:11;3.60;;;1.85;;
1701;SDS011;848;48.354;10.064;2023-09-19T05:47:38;2.47;;;1.50;;
1701;SDS011;848;48.354;10.064;2023-09-19T05:50:08;3.25;;;1.75;;
1701;SDS011;848;48.354;10.064;2023-09-19T05:52:35;2.10;;;1.55;;
1701;SDS011;848;48.354;10.064;2023-09-19T05:55:03;3.35;;;1.50;;
1701;SDS011;848;48.354;10.064;2023-09-19T05:57:30;2.10;;;1.55;;
1701;SDS011;848;48.354;10.064;2023-09-19T05:59:57;1.73;;;1.13;;
1701;SDS011;848;48.354;10.064;2023-09-19T06:02:25;3.05;;;1.30;;
1701;SDS011;848;48.354;10.064;2023-09-19T06:04:55;3.33;;;1.35;;
1701;SDS011;848;48.354;10.064;2023-09-19T06:07:22;5.30;;;1.55;;
1701;SDS011;848;48.354;10.064;2023-09-19T06:09:53;2.45;;;1.25;;
1701;SDS011;848;48.354;10.064;2023-09-19T06:12:19;4.55;;;1.15;;
1701;SDS011;848;48.354;10.064;2023-09-19T06:14:46;2.10;;;1.38;;
1701;SDS011;848;48.354;10.064;2023-09-19T06:17:14;5.60;;;1.65;;
1701;SDS011;848;48.354;10.064;2023-09-19T06:19:43;2.53;;;1.55;;
1701;SDS011;848;48.354;10.064;2023-09-19T06:22:14;2.20;;;1.70;;
1701;SDS011;848;48.354;10.064;2023-09-19T06:24:43;1.98;;;1.38;;
1701;SDS011;848;48.354;10.064;2023-09-19T06:27:09;1.70;;;1.38;;
1701;SDS011;848;48.354;10.064;2023-09-19T06:29:36;2.15;;;1.75;;
1701;SDS011;848;48.354;10.064;2023-09-19T06:32:06;1.55;;;1.10;;
1701;SDS011;848;48.354;10.064;2023-09-19T06:34:35;2.28;;;1.30;;
1701;SDS011;848;48.354;10.064;2023-09-19T06:37:03;4.20;;;1.48;;
1701;SDS011;848;48.354;10.064;2023-09-19T06:39:31;3.15;;;1.20;;
1701;SDS011;848;48.354;10.064;2023-09-19T06:41:58;2.90;;;1.38;;
1701;SDS011;848;48.354;10.064;2023-09-19T06:44:26;7.50;;;1.77;;
1701;SDS011;848;48.354;10.064;2023-09-19T06:46:54;6.90;;;1.63;;
1701;SDS011;848;48.354;10.064;2023-09-19T06:49:21;1.83;;;1.70;;
1701;SDS011;848;48.354;10.064;2023-09-19T06:51:48;1.70;;;1.30;;
1701;SDS011;848;48.354;10.064;2023-09-19T06:54:17;1.50;;;1.20;;
1701;SDS011;848;48.354;10.064;2023-09-19T06:56:43;1.92;;;1.00;;
1701;SDS011;848;48.354;10.064;2023-09-19T06:59:10;2.10;;;1.20;;
1701;SDS011;848;48.354;10.064;2023-09-19T07:01:39;2.97;;;1.70;;
1701;SDS011;848;48.354;10.064;2023-09-19T07:04:06;3.50;;;1.60;;
1701;SDS011;848;48.354;10.064;2023-09-19T07:06:33;2.25;;;1.30;;
1701;SDS011;848;48.354;10.064;2023-09-19T07:09:00;1.98;;;1.50;;
1701;SDS011;848;48.354;10.064;2023-09-19T07:11:29;1.80;;;1.40;;
1701;SDS011;848;48.354;10.064;2023-09-19T07:13:57;5.25;;;1.80;;
1701;SDS011;848;48.354;10.064;2023-09-19T07:16:24;2.53;;;1.35;;
1701;SDS011;848;48.354;10.064;2023-09-19T07:18:54;2.70;;;1.80;;
1701;SDS011;848;48.354;10.064;2023-09-19T07:21:21;1.77;;;1.40;;
1701;SDS011;848;48.354;10.064;2023-09-19T07:23:48;2.22;;;1.30;;
1701;SDS011;848;48.354;10.064;2023-09-19T07:26:15;3.13;;;1.38;;
1701;SDS011;848;48.354;10.064;2023-09-19T07:28:43;1.48;;;1.10;;
1701;SDS011;848;48.354;10.064;2023-09-19T07:31:10;3.50;;;1.73;;
1701;SDS011;848;48.354;10.064;2023-09-19T07:33:39;3.75;;;1.45;;
1701;SDS011;848;48.354;10.064;2023-09-19T07:36:09;1.60;;;1.10;;
1701;SDS011;848;48.354;10.064;2023-09-19T07:38:38;2.20;;;1.25;;
1701;SDS011;848;48.354;10.064;2023-09-19T07:41:05;2.25;;;1.73;;
1701;SDS011;848;48.354;10.064;2023-09-19T07:43:34;2.30;;;1.58;;
1701;SDS011;848;48.354;10.064;2023-09-19T07:46:05;1.63;;;1.13;;
1701;SDS011;848;48.354;10.064;2023-09-19T07:48:34;4.03;;;2.00;;
1701;SDS011;848;48.354;10.064;2023-09-19T07:51:01;2.97;;;1.58;;
1701;SDS011;848;48.354;10.064;2023-09-19T07:53:29;4.93;;;2.65;;
1701;SDS011;848;48.354;10.064;2023-09-19T07:56:02;4.22;;;3.70;;
1701;SDS011;848;48.354;10.064;2023-09-19T07:58:33;2.10;;;1.40;;
1701;SDS011;848;48.354;10.064;2023-09-19T08:01:06;2.95;;;1.60;;
1701;SDS011;848;48.354;10.064;2023-09-19T08:03:34;3.15;;;1.42;;
1701;SDS011;848;48.354;10.064;2023-09-19T08:06:05;2.55;;;1.73;;
1701;SDS011;848;48.354;10.064;2023-09-19T08:08:33;2.95;;;1.30;;
1701;SDS011;848;48.354;10.064;2023-09-19T08:11:02;2.88;;;1.73;;
1701;SDS011;848;48.354;10.064;2023-09-19T08:13:35;2.05;;;1.33;;
1701;SDS011;848;48.354;10.064;2023-09-19T08:16:03;2.22;;;1.23;;
1701;SDS011;848;48.354;10.064;2023-09-19T08:18:31;1.90;;;1.55;;
1701;SDS011;848;48.354;10.064;2023-09-19T08:20:58;1.50;;;1.40;;
1701;SDS011;848;48.354;10.064;2023-09-19T08:23:26;3.60;;;1.77;;
1701;SDS011;848;48.354;10.064;2023-09-19T08:25:55;2.42;;;1.60;;
1701;SDS011;848;48.354;10.064;2023-09-19T08:28:23;1.30;;;1.08;;
1701;SDS011;848;48.354;10.064;2023-09-19T08:30:50;1.48;;;1.38;;
1701;SDS011;848;48.354;10.064;2023-09-19T08:33:17;2.25;;;1.45;;
1701;SDS011;848;48.354;10.064;2023-09-19T08:35:46;1.40;;;1.13;;
1701;SDS011;848;48.354;10.064;2023-09-19T08:38:13;3.13;;;1.23;;
1701;SDS011;848;48.354;10.064;2023-09-19T08:40:40;2.92;;;1.10;;
1701;SDS011;848;48.354;10.064;2023-09-19T08:43:08;2.25;;;1.30;;
1701;SDS011;848;48.354;10.064;2023-09-19T08:45:35;4.30;;;1.77;;
1701;SDS011;848;48.354;10.064;2023-09-19T08:50:51;1.95;;;1.33;;
1701;SDS011;848;48.354;10.064;2023-09-19T08:53:24;3.45;;;1.58;;
1701;SDS011;848;48.354;10.064;2023-09-19T08:55:54;1.25;;;1.00;;
1701;SDS011;848;48.354;10.064;2023-09-19T08:58:23;4.70;;;0.90;;
1701;SDS011;848;48.354;10.064;2023-09-19T09:00:54;2.22;;;1.20;;
1701;SDS011;848;48.354;10.064;2023-09-19T09:03:26;1.50;;;1.40;;
1701;SDS011;848;48.354;10.064;2023-09-19T09:05:58;1.65;;;0.90;;
1701;SDS011;848;48.354;10.064;2023-09-19T09:08:25;3.25;;;1.60;;
1701;SDS011;848;48.354;10.064;2023-09-19T09:10:53;6.30;;;4.28;;
1701;SDS011;848;48.354;10.064;2023-09-19T09:13:21;3.60;;;3.20;;
1701;SDS011;848;48.354;10.064;2023-09-19T09:15:49;1.42;;;1.25;;
1701;SDS011;848;48.354;10.064;2023-09-19T09:18:16;1.42;;;1.00;;
1701;SDS011;848;48.354;10.064;2023-09-19T09:20:43;1.50;;;1.40;;
1701;SDS011;848;48.354;10.064;2023-09-19T09:23:13;2.83;;;1.60;;
1701;SDS011;848;48.354;10.064;2023-09-19T09:25:46;2.08;;;1.65;;
1701;SDS011;848;48.354;10.064;2023-09-19T09:28:18;1.58;;;1.08;;
1701;SDS011;848;48.354;10.064;2023-09-19T09:30:46;2.50;;;1.20;;
1701;SDS011;848;48.354;10.064;2023-09-19T09:33:14;2.15;;;1.10;;
1701;SDS011;848;48.354;10.064;2023-09-19T09:35:47;2.38;;;1.23;;
1701;SDS011;848;48.354;10.064;2023-09-19T09:38:18;2.30;;;1.20;;
1701;SDS011;848;48.354;10.064;2023-09-19T09:40:46;3.55;;;2.92;;
1701;SDS011;848;48.354;10.064;2023-09-19T09:43:28;4.43;;;1.23;;
1701;SDS011;848;48.354;10.064;2023-09-19T09:46:10;2.10;;;1.15;;
1701;SDS011;848;48.354;10.064;2023-09-19T09:48:56;0.98;;;0.82;;
1701;SDS011;848;48.354;10.064;2023-09-19T09:51:38;4.50;;;1.00;;
1701;SDS011;848;48.354;10.064;2023-09-19T09:54:11;2.63;;;1.20;;
1701;SDS011;848;48.354;10.064;2023-09-19T09:56:52;1.75;;;1.20;;
1701;SDS011;848;48.354;10.064;2023-09-19T10:02:16;1.30;;;0.80;;
1701;SDS011;848;48.354;10.064;2023-09-19T10:04:53;3.25;;;2.83;;
1701;SDS011;848;48.354;10.064;2023-09-19T10:07:34;1.02;;;0.77;;
1701;SDS011;848;48.354;10.064;2023-09-19T10:10:05;1.80;;;0.82;;
1701;SDS011;848;48.354;10.064;2023-09-19T10:12:42;2.92;;;1.40;;
1701;SDS011;848;48.354;10.064;2023-09-19T10:15:13;2.72;;;0.93;;
1701;SDS011;848;48.354;10.064;2023-09-19T10:17:43;1.40;;;1.10;;
1701;SDS011;848;48.354;10.064;2023-09-19T10:20:14;1.83;;;0.80;;
1701;SDS011;848;48.354;10.064;2023-09-19T10:22:59;1.90;;;0.90;;
1701;SDS011;848;48.354;10.064;2023-09-19T10:25:28;3.28;;;0.95;;
1701;SDS011;848;48.354;10.064;2023-09-19T10:27:56;2.95;;;0.93;;
1701;SDS011;848;48.354;10.064;2023-09-19T10:30:27;1.40;;;1.00;;
1701;SDS011;848;48.354;10.064;2023-09-19T10:32:59;1.00;;;0.47;;
1701;SDS011;848;48.354;10.064;2023-09-19T10:35:27;1.90;;;0.73;;
1701;SDS011;848;48.354;10.064;2023-09-19T10:37:54;0.77;;;0.50;;
1701;SDS011;848;48.354;10.064;2023-09-19T10:40:27;2.47;;;1.08;;
1701;SDS011;848;48.354;10.064;2023-09-19T10:43:00;3.90;;;0.75;;
1701;SDS011;848;48.354;10.064;2023-09-19T10:45:30;1.00;;;0.63;;
1701;SDS011;848;48.354;10.064;2023-09-19T10:47:58;2.88;;;1.00;;
1701;SDS011;848;48.354;10.064;2023-09-19T10:50:25;2.25;;;1.17;;
1701;SDS011;848;48.354;10.064;2023-09-19T10:52:58;2.63;;;1.15;;
1701;SDS011;848;48.354;10.064;2023-09-19T10:55:31;1.80;;;1.65;;
1701;SDS011;848;48.354;10.064;2023-09-19T10:58:00;2.80;;;1.38;;
1701;SDS011;848;48.354;10.064;2023-09-19T11:00:46;3.67;;;1.08;;
1701;SDS011;848;48.354;10.064;2023-09-19T11:03:18;2.15;;;1.08;;
1701;SDS011;848;48.354;10.064;2023-09-19T11:06:04;3.00;;;1.38;;
1701;SDS011;848;48.354;10.064;2023-09-19T11:08:56;3.08;;;0.88;;
1701;SDS011;848;48.354;10.064;2023-09-19T11:11:48;2.47;;;1.20;;
1701;SDS011;848;48.354;10.064;2023-09-19T11:14:28;1.10;;;0.90;;
1701;SDS011;848;48.354;10.064;2023-09-19T11:25:49;1.90;;;1.15;;
1701;SDS011;848;48.354;10.064;2023-09-19T11:28:29;2.42;;;1.10;;
1701;SDS011;848;48.354;10.064;2023-09-19T11:40:09;2.53;;;1.10;;
1701;SDS011;848;48.354;10.064;2023-09-19T11:42:41;2.50;;;1.27;;
1701;SDS011;848;48.354;10.064;2023-09-19T11:48:12;1.67;;;1.20;;
1701;SDS011;848;48.354;10.064;2023-09-19T11:50:41;1.80;;;1.05;;
1701;SDS011;848;48.354;10.064;2023-09-19T11:53:09;4.10;;;1.20;;
1701;SDS011;848;48.354;10.064;2023-09-19T11:55:37;1.30;;;0.80;;
1701;SDS011;848;48.354;10.064;2023-09-19T11:58:04;1.95;;;1.23;;
1701;SDS011;848;48.354;10.064;2023-09-19T12:00:34;2.50;;;1.30;;
1701;SDS011;848;48.354;10.064;2023-09-19T12:03:03;2.33;;;1.13;;
1701;SDS011;848;48.354;10.064;2023-09-19T12:05:37;1.73;;;1.55;;
1701;SDS011;848;48.354;10.064;2023-09-19T12:08:04;3.90;;;1.35;;
1701;SDS011;848;48.354;10.064;2023-09-19T12:10:34;2.58;;;0.80;;
1701;SDS011;848;48.354;10.064;2023-09-19T12:13:15;1.60;;;0.95;;
1701;SDS011;848;48.354;10.064;2023-09-19T12:15:43;2.85;;;1.10;;
1701;SDS011;848;48.354;10.064;2023-09-19T12:18:25;1.92;;;1.40;;
1701;SDS011;848;48.354;10.064;2023-09-19T12:20:54;2.17;;;1.40;;
1701;SDS011;848;48.354;10.064;2023-09-19T12:23:22;1.67;;;0.88;;
1701;SDS011;848;48.354;10.064;2023-09-19T12:25:50;2.65;;;1.13;;
1701;SDS011;848;48.354;10.064;2023-09-19T12:28:21;1.70;;;1.20;;
1701;SDS011;848;48.354;10.064;2023-09-19T12:30:49;3.88;;;1.23;;
1701;SDS011;848;48.354;10.064;2023-09-19T12:33:20;3.47;;;3.00;;
1701;SDS011;848;48.354;10.064;2023-09-19T12:35:51;2.28;;;1.42;;
1701;SDS011;848;48.354;10.064;2023-09-19T12:38:23;3.63;;;2.65;;
1701;SDS011;848;48.354;10.064;2023-09-19T12:40:51;1.20;;;0.90;;
1701;SDS011;848;48.354;10.064;2023-09-19T12:43:19;2.15;;;1.00;;
1701;SDS011;848;48.354;10.064;2023-09-19T12:45:47;3.35;;;1.42;;
1701;SDS011;848;48.354;10.064;2023-09-19T12:48:17;3.10;;;0.93;;
1701;SDS011;848;48.354;10.064;2023-09-19T12:50:59;1.88;;;0.88;;
1701;SDS011;848;48.354;10.064;2023-09-19T12:53:32;2.65;;;1.02;;
1701;SDS011;848;48.354;10.064;2023-09-19T12:56:01;1.55;;;1.15;;
1701;SDS011;848;48.354;10.064;2023-09-19T12:58:31;1.80;;;1.25;;
1701;SDS011;848;48.354;10.064;2023-09-19T13:01:00;2.38;;;1.20;;
1701;SDS011;848;48.354;10.064;2023-09-19T13:03:28;1.63;;;1.17;;
1701;SDS011;848;48.354;10.064;2023-09-19T13:05:57;2.58;;;1.65;;
1701;SDS011;848;48.354;10.064;2023-09-19T13:08:26;2.13;;;0.98;;
1701;SDS011;848;48.354;10.064;2023-09-19T13:11:08;4.97;;;2.03;;
1701;SDS011;848;48.354;10.064;2023-09-19T13:13:38;2.83;;;1.45;;
1701;SDS011;848;48.354;10.064;2023-09-19T13:16:06;7.07;;;3.97;;
1701;SDS011;848;48.354;10.064;2023-09-19T13:18:43;2.67;;;1.40;;
1701;SDS011;848;48.354;10.064;2023-09-19T13:21:11;5.55;;;3.55;;
1701;SDS011;848;48.354;10.064;2023-09-19T13:23:50;14.25;;;10.23;;
1701;SDS011;848;48.354;10.064;2023-09-19T13:26:17;9.75;;;7.85;;
1701;SDS011;848;48.354;10.064;2023-09-19T13:28:45;7.90;;;6.07;;
1701;SDS011;848;48.354;10.064;2023-09-19T13:31:13;2.05;;;1.33;;
1701;SDS011;848;48.354;10.064;2023-09-19T13:33:43;5.88;;;2.60;;
1701;SDS011;848;48.354;10.064;2023-09-19T13:36:10;5.70;;;2.53;;
1701;SDS011;848;48.354;10.064;2023-09-19T13:38:38;2.53;;;1.40;;
1701;SDS011;848;48.354;10.064;2023-09-19T13:41:06;7.68;;;1.33;;
1701;SDS011;848;48.354;10.064;2023-09-19T13:43:33;1.90;;;1.10;;
1701;SDS011;848;48.354;10.064;2023-09-19T13:46:00;1.95;;;1.48;;
1701;SDS011;848;48.354;10.064;2023-09-19T13:48:27;2.50;;;1.27;;
1701;SDS011;848;48.354;10.064;2023-09-19T13:50:54;5.47;;;1.48;;
1701;SDS011;848;48.354;10.064;2023-09-19T13:53:22;1.98;;;1.15;;
1701;SDS011;848;48.354;10.064;2023-09-19T13:55:51;2.20;;;1.30;;
1701;SDS011;848;48.354;10.064;2023-09-19T13:58:19;1.70;;;1.10;;
1701;SDS011;848;48.354;10.064;2023-09-19T14:00:46;3.67;;;1.52;;
1701;SDS011;848;48.354;10.064;2023-09-19T14:03:13;7.72;;;2.63;;
1701;SDS011;848;48.354;10.064;2023-09-19T14:05:40;3.05;;;1.38;;
1701;SDS011;848;48.354;10.064;2023-09-19T14:08:07;1.35;;;1.02;;
1701;SDS011;848;48.354;10.064;2023-09-19T14:10:34;3.88;;;1.52;;
1701;SDS011;848;48.354;10.064;2023-09-19T14:13:01;3.17;;;1.75;;
1701;SDS011;848;48.354;10.064;2023-09-19T14:15:30;4.32;;;2.65;;
1701;SDS011;848;48.354;10.064;2023-09-19T14:17:57;5.25;;;2.30;;
1701;SDS011;848;48.354;10.064;2023-09-19T14:20:25;2.55;;;2.10;;
1701;SDS011;848;48.354;10.064;2023-09-19T14:22:52;2.20;;;1.13;;
1701;SDS011;848;48.354;10.064;2023-09-19T14:25:20;1.92;;;1.30;;
1701;SDS011;848;48.354;10.064;2023-09-19T14:27:47;1.92;;;1.45;;
1701;SDS011;848;48.354;10.064;2023-09-19T14:30:14;2.23;;;1.20;;
1701;SDS011;848;48.354;10.064;2023-09-19T14:32:42;1.80;;;1.40;;
1701;SDS011;848;48.354;10.064;2023-09-19T14:35:09;1.75;;;1.30;;
1701;SDS011;848;48.354;10.064;2023-09-19T14:37:38;2.85;;;0.90;;
1701;SDS011;848;48.354;10.064;2023-09-19T14:40:06;2.97;;;2.17;;
1701;SDS011;848;48.354;10.064;2023-09-19T14:42:35;4.85;;;1.40;;
1701;SDS011;848;48.354;10.064;2023-09-19T14:45:04;1.98;;;1.50;;
1701;SDS011;848;48.354;10.064;2023-09-19T14:47:32;2.50;;;1.58;;
1701;SDS011;848;48.354;10.064;2023-09-19T14:50:01;2.38;;;1.63;;
1701;SDS011;848;48.354;10.064;2023-09-19T14:52:31;1.92;;;1.13;;
1701;SDS011;848;48.354;10.064;2023-09-19T14:54:59;4.35;;;1.90;;
1701;SDS011;848;48.354;10.064;2023-09-19T14:57:26;1.92;;;1.20;;
1701;SDS011;848;48.354;10.064;2023-09-19T14:59:54;3.25;;;1.30;;
1701;SDS011;848;48.354;10.064;2023-09-19T15:02:21;2.00;;;1.25;;
1701;SDS011;848;48.354;10.064;2023-09-19T15:04:48;4.30;;;1.33;;
1701;SDS011;848;48.354;10.064;2023-09-19T15:07:17;1.50;;;1.20;;
1701;SDS011;848;48.354;10.064;2023-09-19T15:09:44;1.55;;;1.00;;
1701;SDS011;848;48.354;10.064;2023-09-19T15:12:12;3.38;;;1.50;;
1701;SDS011;848;48.354;10.064;2023-09-19T15:14:40;1.95;;;1.35;;
1701;SDS011;848;48.354;10.064;2023-09-19T15:17:07;2.00;;;1.20;;
1701;SDS011;848;48.354;10.064;2023-09-19T15:19:34;2.45;;;0.90;;
1701;SDS011;848;48.354;10.064;2023-09-19T15:22:03;1.50;;;1.15;;
1701;SDS011;848;48.354;10.064;2023-09-19T15:24:32;1.92;;;1.30;;
1701;SDS011;848;48.354;10.064;2023-09-19T15:26:59;1.50;;;1.30;;
1701;SDS011;848;48.354;10.064;2023-09-19T15:29:26;2.08;;;1.10;;
1701;SDS011;848;48.354;10.064;2023-09-19T15:31:54;1.90;;;1.27;;
1701;SDS011;848;48.354;10.064;2023-09-19T15:34:23;1.80;;;1.13;;
1701;SDS011;848;48.354;10.064;2023-09-19T15:36:50;2.28;;;2.05;;
1701;SDS011;848;48.354;10.064;2023-09-19T15:39:17;2.15;;;1.42;;
1701;SDS011;848;48.354;10.064;2023-09-19T15:41:48;1.45;;;1.20;;
1701;SDS011;848;48.354;10.064;2023-09-19T15:44:17;1.88;;;1.30;;
1701;SDS011;848;48.354;10.064;2023-09-19T15:46:45;3.05;;;1.35;;
1701;SDS011;848;48.354;10.064;2023-09-19T15:49:12;1.63;;;1.15;;
1701;SDS011;848;48.354;10.064;2023-09-19T15:51:39;2.97;;;1.60;;
1701;SDS011;848;48.354;10.064;2023-09-19T15:54:10;2.15;;;1.40;;
1701;SDS011;848;48.354;10.064;2023-09-19T15:56:38;1.05;;;0.90;;
1701;SDS011;848;48.354;10.064;2023-09-19T15:59:08;1.65;;;1.02;;